Time;durP1;ratioP1;P1;durP2;ratioP2;P2;SDS_P1;SDS_P2;PMS_P1;PMS_P2;Temp;Humidity;BMP_temperature;BMP_pressure;BME280_temperature;BME280_humidity;BME280_pressure;Samples;Min_cycle;Max_cycle;Signal;HPM_P1;HPM_P2
2023/08/12 00:01:20;;;;;;;;;;;20.70;99.90;;;;;;5154725;27;19949;-48
2023/08/12 00:03:45;;;;;;;;;;;20.60;99.90;;;;;;5143105;27;19911;-46
2023/08/12 00:06:11;;;;;;;;;;;20.60;99.90;;;;;;5134725;27;19930;-47
2023/08/12 00:08:36;;;;;;;;;;;20.60;99.90;;;;;;5133994;27;19952;-45
2023/08/12 00:11:02;;;;;;;;;;;20.50;99.90;;;;;;5134507;27;20006;-47
2023/08/12 00:13:27;;;;;;;;;;;20.50;99.90;;;;;;5134685;27;20044;-46
2023/08/12 00:15:52;;;;;;;;;;;20.50;99.90;;;;;;5133882;27;19908;-47
2023/08/12 00:18:18;;;;;;;;;;;20.40;99.90;;;;;;5134510;27;20055;-48
2023/08/12 00:20:44;;;;;;;;;;;20.40;99.90;;;;;;5133630;27;19915;-46
2023/08/12 00:23:09;;;;;;;;;;;20.40;99.90;;;;;;5134417;27;19911;-47
2023/08/12 00:25:35;;;;;;;;;;;20.40;99.90;;;;;;5134414;27;19907;-45
2023/08/12 00:28:00;;;;;;;;;;;20.30;99.90;;;;;;5133451;27;20399;-45
2023/08/12 00:30:26;;;;;;;;;;;20.30;99.90;;;;;;5134290;27;19916;-46
2023/08/12 00:32:51;;;;;;;;;;;20.30;99.90;;;;;;5135379;27;20300;-46
2023/08/12 00:35:17;;;;;;;;;;;20.20;99.90;;;;;;5154132;27;20249;-48
2023/08/12 00:37:42;;;;;;;;;;;20.20;99.90;;;;;;5154887;27;20266;-48
2023/08/12 00:40:08;;;;;;;;;;;20.10;99.90;;;;;;5154845;27;19907;-46
2023/08/12 00:42:34;;;;;;;;;;;20.10;99.90;;;;;;5153907;27;19914;-46
2023/08/12 00:44:59;;;;;;;;;;;20.10;99.90;;;;;;5153305;27;19974;-46
2023/08/12 00:47:24;;;;;;;;;;;20.10;99.90;;;;;;5153688;27;19908;-46
2023/08/12 00:49:50;;;;;;;;;;;20.10;99.90;;;;;;5152967;27;19923;-48
2023/08/12 00:52:16;;;;;;;;;;;20.10;99.90;;;;;;5153412;27;19907;-46
2023/08/12 00:54:42;;;;;;;;;;;20.00;99.90;;;;;;5153967;27;19914;-46
2023/08/12 00:57:08;;;;;;;;;;;20.00;99.90;;;;;;5153800;27;20462;-45
2023/08/12 00:59:35;;;;;;;;;;;20.00;99.90;;;;;;5154620;27;20369;-46
2023/08/12 01:02:01;;;;;;;;;;;20.00;99.90;;;;;;5154251;27;19968;-50
2023/08/12 01:04:27;;;;;;;;;;;20.00;99.90;;;;;;5138313;27;19919;-48
2023/08/12 01:06:52;;;;;;;;;;;20.00;99.90;;;;;;5133754;27;19907;-49
2023/08/12 01:09:18;;;;;;;;;;;20.00;99.90;;;;;;5133682;27;19911;-46
2023/08/12 01:11:53;;;;;;;;;;;20.00;99.90;;;;;;5133062;27;20018;-45
2023/08/12 01:14:25;;;;;;;;;;;20.00;99.90;;;;;;5133669;28;19943;-45
2023/08/12 01:16:52;;;;;;;;;;;20.00;99.90;;;;;;5133596;28;19929;-45
2023/08/12 01:19:26;;;;;;;;;;;20.00;99.90;;;;;;5132960;28;19965;-46
2023/08/12 01:21:52;;;;;;;;;;;20.00;99.90;;;;;;5133675;28;20369;-47
2023/08/12 01:24:19;;;;;;;;;;;20.00;99.90;;;;;;5132868;28;20046;-46
2023/08/12 01:26:45;;;;;;;;;;;19.90;99.90;;;;;;5133657;28;19907;-46
2023/08/12 01:29:11;;;;;;;;;;;19.90;99.90;;;;;;5133418;28;19907;-48
2023/08/12 01:31:41;;;;;;;;;;;19.90;99.90;;;;;;5133011;28;19912;-47
2023/08/12 01:34:11;;;;;;;;;;;19.90;99.90;;;;;;5133525;27;19955;-49
2023/08/12 01:36:38;;;;;;;;;;;19.90;99.90;;;;;;5133568;28;19907;-46
2023/08/12 01:39:04;;;;;;;;;;;19.80;99.90;;;;;;5132770;28;19915;-45
2023/08/12 01:41:30;;;;;;;;;;;19.90;99.90;;;;;;5133473;28;19911;-48
2023/08/12 01:43:56;;;;;;;;;;;19.80;99.90;;;;;;5133072;28;19919;-48
2023/08/12 01:46:21;;;;;;;;;;;19.80;99.90;;;;;;5132365;28;19912;-45
2023/08/12 01:48:47;;;;;;;;;;;19.80;99.90;;;;;;5133475;28;19907;-45
2023/08/12 01:51:12;;;;;;;;;;;19.80;99.90;;;;;;5133050;27;19920;-44
2023/08/12 01:53:38;;;;;;;;;;;19.70;99.90;;;;;;5151785;27;19911;-47
2023/08/12 01:56:03;;;;;;;;;;;19.70;99.90;;;;;;5152503;27;20006;-47
2023/08/12 01:58:29;;;;;;;;;;;19.70;99.90;;;;;;5153533;27;19907;-47
2023/08/12 02:00:54;;;;;;;;;;;19.70;99.90;;;;;;5153191;27;19942;-46
2023/08/12 02:03:20;;;;;;;;;;;19.60;99.90;;;;;;5154031;27;20318;-47
2023/08/12 02:05:45;;;;;;;;;;;19.60;99.90;;;;;;5155383;27;20364;-46
2023/08/12 02:08:11;;;;;;;;;;;19.60;99.90;;;;;;5157046;27;19977;-47
2023/08/12 02:10:36;;;;;;;;;;;19.60;99.90;;;;;;5157772;27;19922;-45
2023/08/12 02:13:03;;;;;;;;;;;19.50;99.90;;;;;;5157690;27;19995;-46
2023/08/12 02:15:28;;;;;;;;;;;19.50;99.90;;;;;;5157054;27;19914;-46
2023/08/12 02:17:54;;;;;;;;;;;19.50;99.90;;;;;;5157649;27;19907;-47
2023/08/12 02:20:19;;;;;;;;;;;19.60;99.90;;;;;;5156810;27;19918;-45
2023/08/12 02:22:45;;;;;;;;;;;19.50;99.90;;;;;;5157603;27;19907;-45
2023/08/12 02:25:10;;;;;;;;;;;19.60;99.90;;;;;;5157067;27;20393;-47
2023/08/12 02:27:36;;;;;;;;;;;19.60;99.90;;;;;;5156675;27;20348;-46
2023/08/12 02:30:01;;;;;;;;;;;19.60;99.90;;;;;;5157382;27;20323;-44
2023/08/12 02:32:26;;;;;;;;;;;19.50;99.90;;;;;;5157124;27;20307;-46
2023/08/12 02:34:52;;;;;;;;;;;19.50;99.90;;;;;;5156556;27;20010;-47
2023/08/12 02:37:17;;;;;;;;;;;19.50;99.90;;;;;;5157329;27;19910;-44
2023/08/12 02:39:43;;;;;;;;;;;19.60;99.90;;;;;;5157270;27;19956;-45
2023/08/12 02:42:09;;;;;;;;;;;19.60;99.90;;;;;;5156394;27;19907;-46
2023/08/12 02:44:34;;;;;;;;;;;19.60;99.90;;;;;;5156857;27;20325;-46
2023/08/12 02:47:00;;;;;;;;;;;19.60;99.90;;;;;;5157007;27;20365;-47
2023/08/12 02:49:25;;;;;;;;;;;19.60;99.90;;;;;;5156271;27;19967;-49
2023/08/12 02:51:51;;;;;;;;;;;19.60;99.90;;;;;;5157034;27;20369;-45
2023/08/12 02:54:16;;;;;;;;;;;19.60;99.90;;;;;;5145988;27;20006;-48
2023/08/12 02:56:42;;;;;;;;;;;19.60;99.90;;;;;;5135436;27;19981;-45
2023/08/12 02:59:07;;;;;;;;;;;19.60;99.90;;;;;;5135333;27;20002;-46
2023/08/12 03:01:33;;;;;;;;;;;19.70;99.90;;;;;;5135039;27;19915;-46
2023/08/12 03:03:58;;;;;;;;;;;19.70;99.90;;;;;;5133480;27;20365;-48
2023/08/12 03:06:24;;;;;;;;;;;19.70;99.90;;;;;;5136004;27;19907;-46
2023/08/12 03:08:49;;;;;;;;;;;19.70;99.90;;;;;;5135996;27;20319;-47
2023/08/12 03:11:15;;;;;;;;;;;19.70;99.90;;;;;;5134986;27;19998;-47
2023/08/12 03:13:41;;;;;;;;;;;19.70;99.90;;;;;;5135919;27;19977;-46
2023/08/12 03:16:10;;;;;;;;;;;19.70;99.90;;;;;;5135750;27;19947;-49
2023/08/12 03:18:36;;;;;;;;;;;19.70;99.90;;;;;;5134319;27;20277;-44
2023/08/12 03:21:05;;;;;;;;;;;19.70;99.90;;;;;;5135745;27;19914;-45
2023/08/12 03:23:30;;;;;;;;;;;19.70;99.90;;;;;;5135439;27;20361;-47
2023/08/12 03:25:56;;;;;;;;;;;19.70;99.90;;;;;;5135174;27;19953;-45
2023/08/12 03:28:21;;;;;;;;;;;19.80;99.90;;;;;;5135717;27;20273;-46
2023/08/12 03:30:53;;;;;;;;;;;19.80;99.90;;;;;;5134714;27;19962;-45
2023/08/12 03:33:19;;;;;;;;;;;19.80;99.90;;;;;;5135469;27;20010;-48
2023/08/12 03:35:48;;;;;;;;;;;19.80;99.90;;;;;;5135381;27;19949;-47
2023/08/12 03:38:14;;;;;;;;;;;19.80;99.90;;;;;;5134627;27;19911;-45
2023/08/12 03:40:40;;;;;;;;;;;19.80;99.90;;;;;;5135274;27;20394;-46
2023/08/12 03:43:05;;;;;;;;;;;19.70;99.90;;;;;;5134982;27;19908;-45
2023/08/12 03:45:31;;;;;;;;;;;19.70;99.90;;;;;;5134495;27;20274;-44
2023/08/12 03:47:56;;;;;;;;;;;19.70;99.90;;;;;;5152972;27;19990;-45
2023/08/12 03:50:22;;;;;;;;;;;19.70;99.90;;;;;;5155766;27;20317;-47
2023/08/12 03:52:47;;;;;;;;;;;19.70;99.90;;;;;;5155056;27;20372;-47
2023/08/12 03:55:13;;;;;;;;;;;19.60;99.90;;;;;;5155595;27;19907;-47
2023/08/12 03:57:38;;;;;;;;;;;19.60;99.90;;;;;;5155684;27;19922;-48
2023/08/12 04:00:06;;;;;;;;;;;19.60;99.90;;;;;;5154827;27;19907;-47
2023/08/12 04:02:32;;;;;;;;;;;19.60;99.90;;;;;;5155729;27;19907;-48
2023/08/12 04:04:57;;;;;;;;;;;19.60;99.90;;;;;;5154461;27;20478;-49
2023/08/12 04:07:24;;;;;;;;;;;19.60;99.90;;;;;;5154011;27;19907;-45
2023/08/12 04:09:49;;;;;;;;;;;19.60;99.90;;;;;;5152894;27;20010;-45
2023/08/12 04:12:15;;;;;;;;;;;19.60;99.90;;;;;;5154144;27;19953;-46
2023/08/12 04:14:40;;;;;;;;;;;19.60;99.90;;;;;;5154484;27;20006;-45
2023/08/12 04:17:06;;;;;;;;;;;19.60;99.90;;;;;;5154860;27;19911;-47
2023/08/12 04:19:31;;;;;;;;;;;19.60;99.90;;;;;;5155362;27;19907;-47
2023/08/12 04:21:57;;;;;;;;;;;19.60;99.90;;;;;;5140310;27;20372;-46
2023/08/12 04:24:22;;;;;;;;;;;19.60;99.90;;;;;;5134471;27;19914;-43
2023/08/12 04:26:48;;;;;;;;;;;19.60;99.90;;;;;;5134207;27;19908;-50
2023/08/12 04:29:13;;;;;;;;;;;19.60;99.90;;;;;;5133900;27;20366;-45
2023/08/12 04:31:40;;;;;;;;;;;19.60;99.90;;;;;;5134123;27;19915;-47
2023/08/12 04:34:06;;;;;;;;;;;19.60;99.90;;;;;;5133562;27;19907;-46
2023/08/12 04:36:31;;;;;;;;;;;19.60;99.90;;;;;;5134390;27;19907;-49
2023/08/12 04:38:57;;;;;;;;;;;19.60;99.90;;;;;;5134103;27;19908;-46
2023/08/12 04:41:23;;;;;;;;;;;19.70;99.90;;;;;;5133470;27;19915;-47
2023/08/12 04:43:49;;;;;;;;;;;19.70;99.90;;;;;;5133935;27;19975;-46
2023/08/12 04:46:14;;;;;;;;;;;19.70;99.90;;;;;;5137199;27;20006;-48
2023/08/12 04:48:40;;;;;;;;;;;19.70;99.90;;;;;;5154155;27;19918;-47
2023/08/12 04:51:06;;;;;;;;;;;19.70;99.90;;;;;;5136074;27;20034;-47
2023/08/12 04:53:32;;;;;;;;;;;19.70;99.90;;;;;;5154694;27;19911;-46
2023/08/12 04:55:57;;;;;;;;;;;19.70;99.90;;;;;;5153567;27;19944;-47
2023/08/12 04:58:23;;;;;;;;;;;19.70;99.90;;;;;;5154750;27;19907;-47
2023/08/12 05:00:49;;;;;;;;;;;19.80;99.90;;;;;;5154643;27;20372;-46
2023/08/12 05:03:15;;;;;;;;;;;19.80;99.90;;;;;;5154062;27;19933;-48
2023/08/12 05:05:40;;;;;;;;;;;19.80;99.90;;;;;;5154602;27;20340;-46
2023/08/12 05:08:05;;;;;;;;;;;19.80;99.90;;;;;;5154537;27;19990;-46
2023/08/12 05:10:31;;;;;;;;;;;19.80;99.90;;;;;;5153711;27;20388;-46
2023/08/12 05:12:57;;;;;;;;;;;19.80;99.90;;;;;;5154383;27;19952;-47
2023/08/12 05:15:23;;;;;;;;;;;19.80;99.90;;;;;;5154546;27;19911;-44
2023/08/12 05:17:48;;;;;;;;;;;19.80;99.90;;;;;;5137086;27;20258;-45
2023/08/12 05:20:14;;;;;;;;;;;19.90;99.90;;;;;;5133541;28;19908;-48
2023/08/12 05:22:39;;;;;;;;;;;19.90;99.90;;;;;;5133558;28;19907;-46
2023/08/12 05:25:05;;;;;;;;;;;19.90;99.90;;;;;;5132807;28;19908;-46
2023/08/12 05:27:30;;;;;;;;;;;19.90;99.90;;;;;;5133649;28;19956;-47
2023/08/12 05:29:56;;;;;;;;;;;19.90;99.90;;;;;;5140195;27;19940;-46
2023/08/12 05:32:21;;;;;;;;;;;20.00;99.90;;;;;;5124888;27;19922;-45
2023/08/12 05:34:49;;;;;;;;;;;20.00;99.90;;;;;;5124211;28;19911;-45
2023/08/12 05:37:15;;;;;;;;;;;20.00;99.90;;;;;;5130771;28;20319;-44
2023/08/12 05:39:40;;;;;;;;;;;20.10;99.90;;;;;;5130099;27;19936;-48
2023/08/12 05:42:06;;;;;;;;;;;20.10;99.90;;;;;;5136517;27;20039;-46
2023/08/12 05:44:31;;;;;;;;;;;20.20;99.90;;;;;;5135671;27;19935;-44
2023/08/12 05:46:57;;;;;;;;;;;20.20;99.90;;;;;;5136900;27;19919;-46
2023/08/12 05:49:22;;;;;;;;;;;20.30;99.90;;;;;;5136455;27;20321;-48
2023/08/12 05:51:48;;;;;;;;;;;20.30;99.90;;;;;;5135930;27;19916;-46
2023/08/12 05:54:13;;;;;;;;;;;20.40;99.90;;;;;;5138325;27;20365;-48
2023/08/12 05:56:39;;;;;;;;;;;20.40;99.90;;;;;;5136057;27;19912;-47
2023/08/12 05:59:04;;;;;;;;;;;20.50;99.90;;;;;;5135036;27;20271;-49
2023/08/12 06:01:30;;;;;;;;;;;20.50;99.90;;;;;;5123531;27;19927;-45
2023/08/12 06:03:55;;;;;;;;;;;20.60;99.90;;;;;;5133638;27;19908;-45
2023/08/12 06:06:21;;;;;;;;;;;20.60;99.90;;;;;;5125211;27;19994;-47
2023/08/12 06:08:47;;;;;;;;;;;20.70;99.90;;;;;;5137196;27;19956;-45
2023/08/12 06:11:12;;;;;;;;;;;20.80;99.90;;;;;;5150210;27;19966;-47
2023/08/12 06:13:38;;;;;;;;;;;20.90;99.90;;;;;;5123052;27;19912;-44
2023/08/12 06:16:04;;;;;;;;;;;21.00;99.90;;;;;;5116272;28;20419;-46
2023/08/12 06:18:30;;;;;;;;;;;21.00;99.90;;;;;;5116271;28;19915;-46
2023/08/12 06:20:55;;;;;;;;;;;21.00;99.90;;;;;;5120188;27;19937;-45
2023/08/12 06:23:20;;;;;;;;;;;21.10;99.90;;;;;;5134306;27;20372;-46
2023/08/12 06:25:46;;;;;;;;;;;21.10;99.90;;;;;;5126906;27;19973;-47
2023/08/12 06:28:11;;;;;;;;;;;21.10;99.90;;;;;;5135885;27;19960;-47
2023/08/12 06:30:37;;;;;;;;;;;21.10;99.90;;;;;;5135493;27;19919;-44
2023/08/12 06:33:02;;;;;;;;;;;21.10;99.90;;;;;;5120498;27;19912;-45
2023/08/12 06:35:28;;;;;;;;;;;21.10;99.90;;;;;;5122793;27;19961;-46
2023/08/12 06:37:54;;;;;;;;;;;21.10;99.90;;;;;;5118861;27;19919;-46
2023/08/12 06:40:19;;;;;;;;;;;21.00;99.90;;;;;;5128033;27;19947;-46
2023/08/12 06:42:45;;;;;;;;;;;21.10;99.90;;;;;;5135594;27;20434;-51
2023/08/12 06:45:10;;;;;;;;;;;21.10;99.90;;;;;;5114684;27;19924;-45
2023/08/12 06:47:36;;;;;;;;;;;21.10;99.90;;;;;;5115062;28;20327;-47
2023/08/12 06:50:01;;;;;;;;;;;21.10;99.90;;;;;;5115673;28;19915;-45
2023/08/12 06:52:27;;;;;;;;;;;21.10;99.90;;;;;;5114675;28;20286;-49
2023/08/12 06:54:52;;;;;;;;;;;21.10;99.90;;;;;;5114943;28;20285;-50
2023/08/12 06:57:18;;;;;;;;;;;21.10;99.90;;;;;;5115529;28;20008;-46
2023/08/12 06:59:43;;;;;;;;;;;21.20;99.90;;;;;;5115579;28;19908;-49
2023/08/12 07:02:09;;;;;;;;;;;21.20;99.90;;;;;;5122953;27;20045;-45
2023/08/12 07:04:35;;;;;;;;;;;21.20;99.90;;;;;;5126476;27;19911;-49
2023/08/12 07:07:00;;;;;;;;;;;21.20;99.90;;;;;;5134987;27;19930;-46
2023/08/12 07:09:25;;;;;;;;;;;21.20;99.90;;;;;;5114599;28;19907;-49
2023/08/12 07:11:51;;;;;;;;;;;21.20;99.90;;;;;;5155649;27;20379;-45
2023/08/12 07:14:16;;;;;;;;;;;21.10;99.90;;;;;;5156462;27;19907;-46
2023/08/12 07:16:42;;;;;;;;;;;21.10;99.90;;;;;;5155850;27;19907;-48
2023/08/12 07:19:07;;;;;;;;;;;21.20;99.90;;;;;;5154573;27;20388;-45
2023/08/12 07:21:33;;;;;;;;;;;21.20;99.90;;;;;;5108072;28;19911;-46
2023/08/12 07:23:58;;;;;;;;;;;21.20;99.90;;;;;;5114265;28;19908;-45
2023/08/12 07:26:24;;;;;;;;;;;21.20;99.90;;;;;;5115163;28;19954;-45
2023/08/12 07:28:49;;;;;;;;;;;21.20;99.90;;;;;;5115014;28;19908;-46
2023/08/12 07:31:15;;;;;;;;;;;21.20;99.90;;;;;;5115854;27;19916;-45
2023/08/12 07:33:40;;;;;;;;;;;21.20;99.90;;;;;;5131249;27;19923;-46
2023/08/12 07:36:06;;;;;;;;;;;21.20;99.90;;;;;;5123301;27;19911;-47
2023/08/12 07:38:31;;;;;;;;;;;21.20;99.90;;;;;;5127159;27;20298;-46
2023/08/12 07:40:57;;;;;;;;;;;21.10;99.90;;;;;;5120940;27;19915;-48
2023/08/12 07:43:22;;;;;;;;;;;21.10;99.90;;;;;;5114344;28;19965;-47
2023/08/12 07:45:54;;;;;;;;;;;21.10;99.90;;;;;;5109452;28;19908;-46
2023/08/12 07:48:20;;;;;;;;;;;21.10;99.90;;;;;;5118279;27;19998;-46
2023/08/12 07:50:48;;;;;;;;;;;21.10;99.90;;;;;;5128864;27;20064;-52
2023/08/12 07:53:14;;;;;;;;;;;21.10;99.90;;;;;;5132365;27;19985;-45
2023/08/12 07:55:40;;;;;;;;;;;21.10;99.90;;;;;;5121571;27;20271;-46
2023/08/12 07:58:05;;;;;;;;;;;21.10;99.90;;;;;;5133237;27;20273;-46
2023/08/12 08:00:32;;;;;;;;;;;21.10;99.90;;;;;;5134999;27;19957;-45
2023/08/12 08:02:57;;;;;;;;;;;21.10;99.90;;;;;;5123714;27;19914;-45
2023/08/12 08:05:23;;;;;;;;;;;21.10;99.90;;;;;;5113507;28;19908;-44
2023/08/12 08:07:48;;;;;;;;;;;21.10;99.90;;;;;;5114197;28;19908;-46
2023/08/12 08:10:14;;;;;;;;;;;21.10;99.90;;;;;;5121548;27;19942;-46
2023/08/12 08:12:39;;;;;;;;;;;21.10;99.90;;;;;;5134078;27;19946;-45
2023/08/12 08:15:05;;;;;;;;;;;21.10;99.90;;;;;;5118065;27;20363;-46
2023/08/12 08:17:30;;;;;;;;;;;21.10;99.90;;;;;;5114117;28;19912;-48
2023/08/12 08:19:56;;;;;;;;;;;21.10;99.90;;;;;;5134379;27;19912;-44
2023/08/12 08:22:21;;;;;;;;;;;21.00;99.90;;;;;;5154378;27;19998;-46
2023/08/12 08:24:47;;;;;;;;;;;21.00;99.90;;;;;;5155176;27;19966;-47
2023/08/12 08:27:13;;;;;;;;;;;21.00;99.90;;;;;;5154311;27;20001;-48
2023/08/12 08:29:38;;;;;;;;;;;21.00;99.90;;;;;;5155136;27;20006;-47
2023/08/12 08:32:04;;;;;;;;;;;21.00;99.90;;;;;;5139470;27;20014;-45
2023/08/12 08:34:29;;;;;;;;;;;21.00;99.90;;;;;;5133583;27;19911;-46
2023/08/12 08:36:55;;;;;;;;;;;21.00;99.90;;;;;;5127867;27;19963;-45
2023/08/12 08:39:21;;;;;;;;;;;20.90;99.90;;;;;;5113572;28;19912;-48
2023/08/12 08:41:47;;;;;;;;;;;20.90;99.90;;;;;;5150303;27;19911;-45
2023/08/12 08:44:14;;;;;;;;;;;20.90;99.90;;;;;;5154529;27;20381;-44
2023/08/12 08:46:40;;;;;;;;;;;20.90;99.90;;;;;;5147641;27;20274;-47
2023/08/12 08:49:06;;;;;;;;;;;20.90;99.90;;;;;;5131313;27;20072;-47
2023/08/12 08:51:32;;;;;;;;;;;20.90;99.90;;;;;;5134004;27;19927;-47
2023/08/12 08:53:58;;;;;;;;;;;20.90;99.90;;;;;;5133891;27;19908;-47
2023/08/12 08:56:23;;;;;;;;;;;20.90;99.90;;;;;;5133290;27;19986;-46
2023/08/12 08:58:49;;;;;;;;;;;20.90;99.90;;;;;;5133682;27;19915;-44
2023/08/12 09:01:17;;;;;;;;;;;20.80;99.90;;;;;;5130762;27;19915;-45
2023/08/12 09:03:43;;;;;;;;;;;20.80;99.90;;;;;;5133859;27;19908;-48
2023/08/12 09:06:08;;;;;;;;;;;20.80;99.90;;;;;;5133841;27;19907;-45
2023/08/12 09:08:34;;;;;;;;;;;20.80;99.90;;;;;;5133456;27;19919;-45
2023/08/12 09:11:00;;;;;;;;;;;20.70;99.90;;;;;;5136212;27;20429;-46
2023/08/12 09:13:25;;;;;;;;;;;20.70;99.90;;;;;;5133630;28;20250;-49
2023/08/12 09:15:51;;;;;;;;;;;20.60;99.90;;;;;;5131938;27;19922;-45
2023/08/12 09:18:17;;;;;;;;;;;20.60;99.90;;;;;;5129881;27;19915;-46
2023/08/12 09:20:43;;;;;;;;;;;20.50;99.90;;;;;;5133805;28;19911;-46
2023/08/12 09:23:10;;;;;;;;;;;20.50;99.90;;;;;;5132932;28;19973;-47
2023/08/12 09:25:41;;;;;;;;;;;20.50;99.90;;;;;;5133779;28;19907;-46
2023/08/12 09:28:09;;;;;;;;;;;20.50;99.90;;;;;;5133669;28;19915;-45
2023/08/12 09:30:34;;;;;;;;;;;20.40;99.90;;;;;;5132730;28;19919;-45
2023/08/12 09:33:02;;;;;;;;;;;20.40;99.90;;;;;;5133516;28;19908;-46
2023/08/12 09:35:35;;;;;;;;;;;20.50;99.90;;;;;;5133702;28;19908;-45
2023/08/12 09:38:01;;;;;;;;;;;20.40;99.90;;;;;;5132820;28;20382;-46
2023/08/12 09:40:27;;;;;;;;;;;20.40;99.90;;;;;;5140142;27;19918;-46
2023/08/12 09:42:52;;;;;;;;;;;20.40;99.90;;;;;;5154514;27;19907;-45
2023/08/12 09:45:20;;;;;;;;;;;20.40;99.90;;;;;;5153190;27;19931;-46
2023/08/12 09:47:46;;;;;;;;;;;20.40;99.90;;;;;;5154221;27;19907;-46
2023/08/12 09:50:13;;;;;;;;;;;20.40;99.90;;;;;;5153717;27;19942;-47
2023/08/12 09:52:39;;;;;;;;;;;20.40;99.90;;;;;;5153660;27;19959;-44
2023/08/12 09:55:05;;;;;;;;;;;20.40;99.90;;;;;;5154106;27;19914;-45
2023/08/12 09:57:33;;;;;;;;;;;20.40;99.90;;;;;;5153296;27;19950;-47
2023/08/12 09:59:59;;;;;;;;;;;20.40;99.90;;;;;;5153965;27;19997;-44
2023/08/12 10:02:25;;;;;;;;;;;20.30;99.90;;;;;;5154106;27;19911;-49
2023/08/12 10:04:53;;;;;;;;;;;20.40;99.90;;;;;;5153301;27;19911;-48
2023/08/12 10:07:19;;;;;;;;;;;20.40;99.90;;;;;;5154007;27;19918;-47
2023/08/12 10:09:45;;;;;;;;;;;20.40;99.90;;;;;;5153399;27;19907;-46
2023/08/12 10:12:11;;;;;;;;;;;20.40;99.90;;;;;;5132292;27;19911;-46
2023/08/12 10:14:37;;;;;;;;;;;20.40;99.90;;;;;;5133314;28;19907;-45
2023/08/12 10:17:02;;;;;;;;;;;20.40;99.90;;;;;;5133190;28;19915;-46
2023/08/12 10:19:28;;;;;;;;;;;20.40;99.90;;;;;;5132298;28;19907;-46
2023/08/12 10:21:58;;;;;;;;;;;20.40;99.90;;;;;;5129585;28;19916;-48
2023/08/12 10:24:25;;;;;;;;;;;20.40;99.90;;;;;;5126170;28;19912;-45
2023/08/12 10:26:52;;;;;;;;;;;20.40;99.90;;;;;;5118287;28;19942;-47
2023/08/12 10:29:18;;;;;;;;;;;20.50;99.90;;;;;;5115972;28;19911;-45
2023/08/12 10:31:44;;;;;;;;;;;20.50;99.90;;;;;;5148805;27;20259;-45
2023/08/12 10:34:22;;;;;;;;;;;20.50;99.90;;;;;;5119550;27;19914;-49
2023/08/12 10:36:53;;;;;;;;;;;20.60;99.90;;;;;;5134547;27;19907;-46
2023/08/12 10:39:18;;;;;;;;;;;20.60;99.90;;;;;;5134784;27;20003;-46
2023/08/12 10:41:49;;;;;;;;;;;20.60;99.90;;;;;;5125974;27;20006;-48
2023/08/12 10:44:15;;;;;;;;;;;20.60;99.90;;;;;;5121276;27;20018;-46
2023/08/12 10:46:49;;;;;;;;;;;20.60;99.90;;;;;;5132506;27;20374;-45
2023/08/12 10:49:14;;;;;;;;;;;20.60;99.90;;;;;;5134038;27;19943;-44
2023/08/12 10:51:53;;;;;;;;;;;20.60;99.90;;;;;;5148631;27;19919;-45
2023/08/12 10:54:21;;;;;;;;;;;20.70;99.90;;;;;;5156177;27;20362;-46
2023/08/12 10:57:16;;;;;;;;;;;20.80;99.90;;;;;;5156679;27;19959;-44
2023/08/12 10:59:45;;;;;;;;;;;20.90;99.90;;;;;;5134509;27;19911;-46
2023/08/12 11:02:21;;;;;;;;;;;21.00;99.90;;;;;;5141983;27;19920;-45
2023/08/12 11:04:52;;;;;;;;;;;21.00;99.90;;;;;;5119816;27;20445;-46
2023/08/12 11:07:18;;;;;;;;;;;21.00;99.90;;;;;;5129134;27;19943;-48
2023/08/12 11:09:45;;;;;;;;;;;20.90;99.90;;;;;;5112010;28;19986;-47
2023/08/12 11:12:11;;;;;;;;;;;21.00;99.90;;;;;;5117221;27;19919;-44
2023/08/12 11:14:52;;;;;;;;;;;21.10;99.90;;;;;;5134024;27;19907;-45
2023/08/12 11:17:18;;;;;;;;;;;21.00;99.90;;;;;;5133565;27;19949;-47
2023/08/12 11:19:43;;;;;;;;;;;21.00;99.90;;;;;;5138736;27;19965;-46
2023/08/12 11:22:12;;;;;;;;;;;20.90;99.90;;;;;;5145322;27;19919;-51
2023/08/12 11:24:41;;;;;;;;;;;20.90;99.90;;;;;;5134644;27;20025;-44
2023/08/12 11:27:10;;;;;;;;;;;20.90;99.90;;;;;;5135135;27;19950;-45
2023/08/12 11:29:37;;;;;;;;;;;21.00;99.90;;;;;;5119408;27;19914;-47
2023/08/12 11:32:02;;;;;;;;;;;21.00;99.90;;;;;;5115363;27;20397;-47
2023/08/12 11:34:28;;;;;;;;;;;21.00;99.90;;;;;;5129815;27;19916;-46
2023/08/12 11:36:54;;;;;;;;;;;21.00;99.90;;;;;;5124054;27;20006;-46
2023/08/12 11:39:19;;;;;;;;;;;20.90;99.90;;;;;;5133582;27;20273;-46
2023/08/12 11:41:45;;;;;;;;;;;20.80;99.90;;;;;;5134322;27;20006;-44
2023/08/12 11:44:20;;;;;;;;;;;20.80;99.90;;;;;;5132982;27;19927;-45
2023/08/12 11:46:46;;;;;;;;;;;20.70;99.90;;;;;;5134200;27;20445;-45
2023/08/12 11:49:11;;;;;;;;;;;20.70;99.90;;;;;;5134342;27;20002;-44
2023/08/12 11:51:37;;;;;;;;;;;20.70;99.90;;;;;;5129888;27;19919;-48
2023/08/12 11:54:03;;;;;;;;;;;20.70;99.90;;;;;;5115656;27;19916;-45
2023/08/12 11:56:30;;;;;;;;;;;20.80;99.90;;;;;;5111610;28;20225;-45
2023/08/12 11:58:56;;;;;;;;;;;20.80;99.90;;;;;;5127738;27;20354;-45
2023/08/12 12:01:22;;;;;;;;;;;20.90;99.90;;;;;;5135025;27;19907;-47
2023/08/12 12:03:51;;;;;;;;;;;21.00;99.90;;;;;;5134940;27;20014;-45
2023/08/12 12:06:17;;;;;;;;;;;21.20;99.90;;;;;;5133964;27;20316;-49
2023/08/12 12:08:45;;;;;;;;;;;21.20;99.90;;;;;;5130871;27;20015;-45
2023/08/12 12:11:11;;;;;;;;;;;21.20;99.90;;;;;;5113126;28;20337;-45
2023/08/12 12:13:36;;;;;;;;;;;21.10;99.90;;;;;;5117923;27;19908;-45
2023/08/12 12:16:02;;;;;;;;;;;21.10;99.90;;;;;;5144045;27;19920;-44
2023/08/12 12:18:27;;;;;;;;;;;21.10;99.90;;;;;;5133976;27;20009;-44
2023/08/12 12:20:54;;;;;;;;;;;21.00;99.90;;;;;;5134609;27;20358;-45
2023/08/12 12:23:20;;;;;;;;;;;21.10;99.90;;;;;;5134261;27;19914;-46
2023/08/12 12:25:45;;;;;;;;;;;21.20;99.90;;;;;;5133826;27;19908;-46
2023/08/12 12:28:11;;;;;;;;;;;21.30;99.90;;;;;;5134037;27;19912;-48
2023/08/12 12:30:36;;;;;;;;;;;21.40;99.90;;;;;;5141470;27;19919;-43
2023/08/12 12:33:02;;;;;;;;;;;21.40;99.90;;;;;;5152995;27;19955;-46
2023/08/12 12:35:27;;;;;;;;;;;21.20;99.90;;;;;;5134159;27;19915;-44
2023/08/12 12:37:53;;;;;;;;;;;21.10;99.90;;;;;;5132060;27;19911;-52
2023/08/12 12:40:18;;;;;;;;;;;21.10;99.90;;;;;;5133249;27;19918;-44
2023/08/12 12:42:44;;;;;;;;;;;21.30;99.90;;;;;;5127523;27;19915;-45
2023/08/12 12:45:10;;;;;;;;;;;21.60;99.90;;;;;;5113283;28;19924;-45
2023/08/12 12:47:36;;;;;;;;;;;21.80;99.90;;;;;;5112919;28;19935;-47
2023/08/12 12:50:01;;;;;;;;;;;22.10;99.90;;;;;;5112550;28;19915;-43
2023/08/12 12:52:27;;;;;;;;;;;22.30;99.90;;;;;;5121343;27;19908;-44
2023/08/12 12:54:52;;;;;;;;;;;22.30;99.90;;;;;;5133386;27;19911;-44
2023/08/12 12:57:18;;;;;;;;;;;22.50;99.90;;;;;;5133784;27;19908;-45
2023/08/12 12:59:43;;;;;;;;;;;22.60;99.90;;;;;;5119481;27;19950;-48
2023/08/12 13:02:09;;;;;;;;;;;22.70;99.90;;;;;;5134132;27;19963;-45
2023/08/12 13:04:34;;;;;;;;;;;23.00;99.90;;;;;;5137894;27;19934;-44
2023/08/12 13:07:00;;;;;;;;;;;22.90;99.90;;;;;;5154502;27;19907;-45
2023/08/12 13:09:26;;;;;;;;;;;23.10;99.90;;;;;;5153789;27;19918;-44
2023/08/12 13:11:51;;;;;;;;;;;23.20;99.90;;;;;;5154451;27;19919;-45
2023/08/12 13:14:20;;;;;;;;;;;23.10;99.90;;;;;;5144548;27;19911;-43
2023/08/12 13:16:46;;;;;;;;;;;23.20;99.90;;;;;;5131848;28;19912;-45
2023/08/12 13:19:11;;;;;;;;;;;23.30;99.90;;;;;;5133643;28;20345;-45
2023/08/12 13:21:37;;;;;;;;;;;23.60;99.90;;;;;;5132861;28;19908;-47
2023/08/12 13:24:03;;;;;;;;;;;23.80;99.90;;;;;;5137818;27;19960;-45
2023/08/12 13:26:29;;;;;;;;;;;24.10;99.90;;;;;;5133730;28;19919;-46
2023/08/12 13:28:54;;;;;;;;;;;24.20;99.90;;;;;;5132852;28;19907;-45
2023/08/12 13:31:20;;;;;;;;;;;24.30;99.90;;;;;;5139800;27;19923;-46
2023/08/12 13:33:45;;;;;;;;;;;24.20;99.90;;;;;;5153861;27;19911;-45
2023/08/12 13:36:11;;;;;;;;;;;24.20;99.90;;;;;;5153324;27;19911;-44
2023/08/12 13:38:37;;;;;;;;;;;24.40;99.90;;;;;;5154058;27;20301;-46
2023/08/12 13:41:02;;;;;;;;;;;24.50;99.90;;;;;;5153977;27;19907;-46
2023/08/12 13:43:28;;;;;;;;;;;24.40;99.90;;;;;;5141235;27;19919;-47
2023/08/12 13:45:53;;;;;;;;;;;24.50;99.90;;;;;;5133469;28;19911;-47
2023/08/12 13:48:19;;;;;;;;;;;24.60;99.90;;;;;;5133325;28;19912;-45
2023/08/12 13:50:44;;;;;;;;;;;24.70;99.90;;;;;;5132606;28;19985;-45
2023/08/12 13:53:10;;;;;;;;;;;24.80;99.90;;;;;;5123749;28;19912;-45
2023/08/12 13:55:35;;;;;;;;;;;24.80;99.90;;;;;;5112903;28;19907;-44
2023/08/12 13:58:00;;;;;;;;;;;25.00;99.90;;;;;;5112084;28;20278;-45
2023/08/12 14:00:26;;;;;;;;;;;25.20;99.90;;;;;;5112766;28;19908;-44
2023/08/12 14:02:51;;;;;;;;;;;25.30;99.90;;;;;;5115961;27;19912;-45
2023/08/12 14:05:17;;;;;;;;;;;25.30;99.90;;;;;;5128209;27;20404;-50
2023/08/12 14:07:42;;;;;;;;;;;25.40;99.90;;;;;;5125322;27;19908;-44
2023/08/12 14:10:08;;;;;;;;;;;25.60;99.90;;;;;;5137018;27;20005;-46